sensor_id;sensor_type;location;lat;lon;timestamp;pressure;altitude;pressure_sealevel;temperature;humidity
77631;BME280;66798;47.370;8.552;2024-03-23T14:11:59;96412.22;;;10.56;51.81
77631;BME280;66798;47.370;8.552;2024-03-23T14:14:25;96404.25;;;10.72;51.84
77631;BME280;66798;47.370;8.552;2024-03-23T14:16:51;96417.13;;;10.78;51.19
77631;BME280;66798;47.370;8.552;2024-03-23T14:19:16;96412.06;;;10.82;51.06
77631;BME280;66798;47.370;8.552;2024-03-23T14:21:42;96406.47;;;10.49;50.33
77631;BME280;66798;47.370;8.552;2024-03-23T14:24:07;96398.66;;;10.34;50.42
77631;BME280;66798;47.370;8.552;2024-03-23T14:26:34;96396.03;;;10.34;50.96
77631;BME280;66798;47.370;8.552;2024-03-23T14:29:00;96396.03;;;10.34;50.71
77631;BME280;66798;47.370;8.552;2024-03-23T14:31:26;96390.47;;;10.40;49.66
77631;BME280;66798;47.370;8.552;2024-03-23T14:33:51;96382.72;;;10.65;49.90
77631;BME280;66798;47.370;8.552;2024-03-23T14:36:17;96383.50;;;10.70;48.58
77631;BME280;66798;47.370;8.552;2024-03-23T14:38:47;96373.97;;;10.74;45.99
77631;BME280;66798;47.370;8.552;2024-03-23T14:41:13;96371.69;;;10.62;44.81
77631;BME280;66798;47.370;8.552;2024-03-23T14:43:39;96367.91;;;10.79;45.22
77631;BME280;66798;47.370;8.552;2024-03-23T14:46:12;96364.66;;;10.92;46.50
77631;BME280;66798;47.370;8.552;2024-03-23T14:48:39;96350.59;;;10.73;47.27
77631;BME280;66798;47.370;8.552;2024-03-23T14:51:06;96363.81;;;10.57;46.23
77631;BME280;66798;47.370;8.552;2024-03-23T14:53:36;96371.56;;;10.38;45.77
77631;BME280;66798;47.370;8.552;2024-03-23T14:56:03;96357.38;;;10.39;45.56
77631;BME280;66798;47.370;8.552;2024-03-23T14:58:29;96366.84;;;10.35;44.94
77631;BME280;66798;47.370;8.552;2024-03-23T15:01:02;96366.25;;;10.49;46.53
77631;BME280;66798;47.370;8.552;2024-03-23T15:03:28;96363.81;;;10.57;45.39
77631;BME280;66798;47.370;8.552;2024-03-23T15:05:57;96368.88;;;10.49;45.07
77631;BME280;66798;47.370;8.552;2024-03-23T15:08:23;96383.06;;;10.48;44.02
77631;BME280;66798;47.370;8.552;2024-03-23T15:10:49;96368.06;;;10.48;44.66
77631;BME280;66798;47.370;8.552;2024-03-23T15:13:15;96368.06;;;10.48;45.25
77631;BME280;66798;47.370;8.552;2024-03-23T15:15:42;96369.91;;;10.53;43.77
77631;BME280;66798;47.370;8.552;2024-03-23T15:18:13;96367.81;;;10.50;44.17
77631;BME280;66798;47.370;8.552;2024-03-23T15:20:40;96370.19;;;10.51;43.69
77631;BME280;66798;47.370;8.552;2024-03-23T15:23:06;96355.97;;;10.52;43.90
77631;BME280;66798;47.370;8.552;2024-03-23T15:25:31;96361.09;;;10.28;43.97
77631;BME280;66798;47.370;8.552;2024-03-23T15:27:58;96362.09;;;10.27;44.46
77631;BME280;66798;47.370;8.552;2024-03-23T15:30:24;96366.59;;;10.21;44.75
77631;BME280;66798;47.370;8.552;2024-03-23T15:32:50;96364.53;;;10.18;44.04
77631;BME280;66798;47.370;8.552;2024-03-23T15:35:15;96363.16;;;10.26;45.21
77631;BME280;66798;47.370;8.552;2024-03-23T15:37:41;96350.59;;;10.13;44.28
77631;BME280;66798;47.370;8.552;2024-03-23T15:40:07;96353.22;;;10.13;44.56
77631;BME280;66798;47.370;8.552;2024-03-23T15:42:32;96353.00;;;10.04;44.62
77631;BME280;66798;47.370;8.552;2024-03-23T15:44:58;96351.72;;;9.96;43.90
77631;BME280;66798;47.370;8.552;2024-03-23T15:47:23;96349.38;;;9.95;44.87
77631;BME280;66798;47.370;8.552;2024-03-23T15:49:49;96362.25;;;9.96;44.81
77631;BME280;66798;47.370;8.552;2024-03-23T15:52:15;96353.00;;;10.04;44.38
77631;BME280;66798;47.370;8.552;2024-03-23T15:54:40;96357.00;;;9.96;45.06
77631;BME280;66798;47.370;8.552;2024-03-23T15:57:08;96353.31;;;9.92;45.02
77631;BME280;66798;47.370;8.552;2024-03-23T15:59:33;96348.84;;;9.93;43.02
77631;BME280;66798;47.370;8.552;2024-03-23T16:01:59;96356.69;;;9.98;42.94
77631;BME280;66798;47.370;8.552;2024-03-23T16:04:24;96353.28;;;9.97;44.30
77631;BME280;66798;47.370;8.552;2024-03-23T16:06:50;96345.19;;;9.94;42.70
77631;BME280;66798;47.370;8.552;2024-03-23T16:09:15;96350.13;;;10.00;43.72
77631;BME280;66798;47.370;8.552;2024-03-23T16:11:41;96348.81;;;10.08;43.74
77631;BME280;66798;47.370;8.552;2024-03-23T16:14:07;96344.00;;;10.20;43.94
77631;BME280;66798;47.370;8.552;2024-03-23T16:16:32;96330.44;;;9.98;43.17
77631;BME280;66798;47.370;8.552;2024-03-23T16:18:57;96325.72;;;9.95;43.52
77631;BME280;66798;47.370;8.552;2024-03-23T16:21:23;96327.56;;;9.94;42.24
77631;BME280;66798;47.370;8.552;2024-03-23T16:23:48;96318.56;;;10.06;42.56
77631;BME280;66798;47.370;8.552;2024-03-23T16:26:14;96327.00;;;10.03;42.91
77631;BME280;66798;47.370;8.552;2024-03-23T16:28:42;96312.81;;;10.04;42.44
77631;BME280;66798;47.370;8.552;2024-03-23T16:31:08;96321.25;;;9.95;41.59
77631;BME280;66798;47.370;8.552;2024-03-23T16:33:38;96320.47;;;9.95;43.31
77631;BME280;66798;47.370;8.552;2024-03-23T16:36:08;96326.53;;;9.90;40.58
77631;BME280;66798;47.370;8.552;2024-03-23T16:38:38;96327.59;;;9.79;41.82
77631;BME280;66798;47.370;8.552;2024-03-23T16:41:06;96313.44;;;9.70;41.15
77631;BME280;66798;47.370;8.552;2024-03-23T16:43:33;96313.97;;;9.72;42.47
77631;BME280;66798;47.370;8.552;2024-03-23T16:46:04;96310.53;;;9.76;40.74
77631;BME280;66798;47.370;8.552;2024-03-23T16:48:30;96311.59;;;9.81;41.82
77631;BME280;66798;47.370;8.552;2024-03-23T16:51:00;96306.63;;;9.74;40.32
77631;BME280;66798;47.370;8.552;2024-03-23T16:53:28;96312.44;;;9.61;41.16
77631;BME280;66798;47.370;8.552;2024-03-23T16:56:13;96316.91;;;9.55;41.77
77631;BME280;66798;47.370;8.552;2024-03-23T16:58:39;96323.75;;;9.56;44.61
77631;BME280;66798;47.370;8.552;2024-03-23T17:01:07;96330.34;;;9.28;45.51
77631;BME280;66798;47.370;8.552;2024-03-23T17:03:35;96328.53;;;9.13;46.83
77631;BME280;66798;47.370;8.552;2024-03-23T17:06:07;96324.84;;;9.09;48.37
77631;BME280;66798;47.370;8.552;2024-03-23T17:08:34;96326.16;;;8.96;49.02
77631;BME280;66798;47.370;8.552;2024-03-23T17:11:00;96340.84;;;8.77;50.14
77631;BME280;66798;47.370;8.552;2024-03-23T17:13:27;96339.28;;;8.81;51.26
77631;BME280;66798;47.370;8.552;2024-03-23T17:15:52;96343.47;;;8.71;50.15
77631;BME280;66798;47.370;8.552;2024-03-23T17:18:18;96348.97;;;8.70;49.98
77631;BME280;66798;47.370;8.552;2024-03-23T17:20:44;96346.88;;;8.77;52.36
77631;BME280;66798;47.370;8.552;2024-03-23T17:23:10;96348.69;;;8.71;52.23
77631;BME280;66798;47.370;8.552;2024-03-23T17:25:37;96347.13;;;8.65;52.23
77631;BME280;66798;47.370;8.552;2024-03-23T17:28:02;96361.75;;;8.41;53.13
77631;BME280;66798;47.370;8.552;2024-03-23T17:30:28;96361.75;;;8.41;52.90
77631;BME280;66798;47.370;8.552;2024-03-23T17:32:54;96369.66;;;8.51;53.54
77631;BME280;66798;47.370;8.552;2024-03-23T17:35:19;96393.25;;;8.51;53.54
77631;BME280;66798;47.370;8.552;2024-03-23T17:37:45;96382.75;;;8.56;53.32
77631;BME280;66798;47.370;8.552;2024-03-23T17:40:10;96396.88;;;8.45;53.37
77631;BME280;66798;47.370;8.552;2024-03-23T17:42:40;96374.03;;;8.35;52.01
77631;BME280;66798;47.370;8.552;2024-03-23T17:45:06;96373.22;;;8.29;52.89
77631;BME280;66798;47.370;8.552;2024-03-23T17:47:37;96376.31;;;8.21;52.63
77631;BME280;66798;47.370;8.552;2024-03-23T17:50:04;96386.78;;;8.11;54.67
77631;BME280;66798;47.370;8.552;2024-03-23T17:52:30;96380.69;;;8.00;54.29
77631;BME280;66798;47.370;8.552;2024-03-23T17:54:56;96385.69;;;8.02;56.44
77631;BME280;66798;47.370;8.552;2024-03-23T17:57:22;96385.63;;;7.92;56.90
77631;BME280;66798;47.370;8.552;2024-03-23T17:59:47;96396.56;;;7.83;57.98
77631;BME280;66798;47.370;8.552;2024-03-23T18:02:14;96407.59;;;7.85;58.38
77631;BME280;66798;47.370;8.552;2024-03-23T18:04:41;96404.25;;;7.58;59.63
77631;BME280;66798;47.370;8.552;2024-03-23T18:07:06;96405.50;;;7.45;61.04
77631;BME280;66798;47.370;8.552;2024-03-23T18:09:32;96410.69;;;7.40;60.54
77631;BME280;66798;47.370;8.552;2024-03-23T18:11:57;96417.56;;;7.46;61.02
77631;BME280;66798;47.370;8.552;2024-03-23T18:14:23;96425.44;;;7.51;61.78
77631;BME280;66798;47.370;8.552;2024-03-23T18:16:48;96432.53;;;7.56;60.78
77631;BME280;66798;47.370;8.552;2024-03-23T18:19:15;96438.78;;;7.50;62.43
77631;BME280;66798;47.370;8.552;2024-03-23T18:21:40;96450.78;;;7.45;62.38
77631;BME280;66798;47.370;8.552;2024-03-23T18:24:06;96463.13;;;7.55;63.77
77631;BME280;66798;47.370;8.552;2024-03-23T18:26:31;96446.84;;;6.89;62.51
77631;BME280;66798;47.370;8.552;2024-03-23T18:28:57;96462.81;;;6.87;67.50
77631;BME280;66798;47.370;8.552;2024-03-23T18:31:22;96484.34;;;6.72;68.81
77631;BME280;66798;47.370;8.552;2024-03-23T18:33:48;96499.53;;;6.53;71.04
77631;BME280;66798;47.370;8.552;2024-03-23T18:36:14;96510.69;;;6.10;75.17
77631;BME280;66798;47.370;8.552;2024-03-23T18:38:39;96529.47;;;6.07;76.90
77631;BME280;66798;47.370;8.552;2024-03-23T18:41:05;96525.25;;;5.72;79.45
77631;BME280;66798;47.370;8.552;2024-03-23T18:43:30;96533.31;;;5.53;81.95
77631;BME280;66798;47.370;8.552;2024-03-23T18:45:58;96533.53;;;5.35;82.89
77631;BME280;66798;47.370;8.552;2024-03-23T18:48:23;96532.28;;;5.09;83.37
77631;BME280;66798;47.370;8.552;2024-03-23T18:50:50;96512.03;;;4.99;82.84
77631;BME280;66798;47.370;8.552;2024-03-23T18:53:15;96489.00;;;5.08;84.33
77631;BME280;66798;47.370;8.552;2024-03-23T18:55:50;96492.56;;;5.19;84.12
77631;BME280;66798;47.370;8.552;2024-03-23T18:58:16;96500.56;;;5.00;84.88
77631;BME280;66798;47.370;8.552;2024-03-23T19:00:41;96498.00;;;5.17;84.55
77631;BME280;66798;47.370;8.552;2024-03-23T19:03:06;96492.69;;;5.12;83.24
77631;BME280;66798;47.370;8.552;2024-03-23T19:05:33;96492.19;;;5.27;83.47
77631;BME280;66798;47.370;8.552;2024-03-23T19:07:58;96497.78;;;5.36;82.85
77631;BME280;66798;47.370;8.552;2024-03-23T19:10:23;96489.53;;;5.39;80.68
77631;BME280;66798;47.370;8.552;2024-03-23T19:12:49;96478.22;;;5.04;82.47
77631;BME280;66798;47.370;8.552;2024-03-23T19:15:15;96477.56;;;5.26;81.84
77631;BME280;66798;47.370;8.552;2024-03-23T19:17:40;96474.09;;;5.20;82.73
77631;BME280;66798;47.370;8.552;2024-03-23T19:20:06;96477.00;;;5.24;81.07
77631;BME280;66798;47.370;8.552;2024-03-23T19:22:32;96477.00;;;5.24;79.95
77631;BME280;66798;47.370;8.552;2024-03-23T19:24:58;96473.31;;;5.37;79.60
77631;BME280;66798;47.370;8.552;2024-03-23T19:27:26;96467.63;;;5.40;80.76
77631;BME280;66798;47.370;8.552;2024-03-23T19:29:51;96473.47;;;5.30;80.79
77631;BME280;66798;47.370;8.552;2024-03-23T19:32:17;96478.53;;;5.37;81.38
77631;BME280;66798;47.370;8.552;2024-03-23T19:34:43;96477.69;;;5.19;81.41
77631;BME280;66798;47.370;8.552;2024-03-23T19:37:09;96481.75;;;5.27;80.75
77631;BME280;66798;47.370;8.552;2024-03-23T19:39:34;96482.06;;;5.30;80.11
77631;BME280;66798;47.370;8.552;2024-03-23T19:42:00;96478.53;;;5.37;80.10
77631;BME280;66798;47.370;8.552;2024-03-23T19:44:25;96482.28;;;5.29;80.67
77631;BME280;66798;47.370;8.552;2024-03-23T19:46:51;96479.78;;;5.34;81.14
77631;BME280;66798;47.370;8.552;2024-03-23T19:49:19;96481.38;;;5.35;80.49
77631;BME280;66798;47.370;8.552;2024-03-23T19:51:45;96478.34;;;5.26;80.86
77631;BME280;66798;47.370;8.552;2024-03-23T19:54:10;96467.84;;;5.38;80.30
77631;BME280;66798;47.370;8.552;2024-03-23T19:56:37;96468.66;;;5.39;81.50
77631;BME280;66798;47.370;8.552;2024-03-23T19:59:05;96465.09;;;5.45;80.08
77631;BME280;66798;47.370;8.552;2024-03-23T20:01:31;96463.81;;;5.47;80.34
77631;BME280;66798;47.370;8.552;2024-03-23T20:03:57;96462.00;;;5.31;79.70
77631;BME280;66798;47.370;8.552;2024-03-23T20:06:22;96462.31;;;5.35;79.04
77631;BME280;66798;47.370;8.552;2024-03-23T20:08:48;96460.91;;;5.44;79.63
77631;BME280;66798;47.370;8.552;2024-03-23T20:11:14;96458.13;;;5.50;78.29
77631;BME280;66798;47.370;8.552;2024-03-23T20:13:39;96456.56;;;5.49;78.15
77631;BME280;66798;47.370;8.552;2024-03-23T20:16:05;96447.78;;;5.56;78.54
77631;BME280;66798;47.370;8.552;2024-03-23T20:18:31;96452.81;;;5.62;77.25
77631;BME280;66798;47.370;8.552;2024-03-23T20:21:01;96457.09;;;5.68;77.28
77631;BME280;66798;47.370;8.552;2024-03-23T20:23:26;96451.88;;;5.68;77.58
77631;BME280;66798;47.370;8.552;2024-03-23T20:25:56;96459.78;;;5.73;76.95
77631;BME280;66798;47.370;8.552;2024-03-23T20:28:23;96446.59;;;5.63;76.16
77631;BME280;66798;47.370;8.552;2024-03-23T20:31:14;96451.16;;;5.73;75.70
77631;BME280;66798;47.370;8.552;2024-03-23T20:33:40;96466.03;;;5.72;75.19
77631;BME280;66798;47.370;8.552;2024-03-23T20:36:06;96474.16;;;5.76;75.58
77631;BME280;66798;47.370;8.552;2024-03-23T20:38:31;96473.78;;;5.84;75.41
77631;BME280;66798;47.370;8.552;2024-03-23T20:40:58;96467.53;;;5.85;75.84
77631;BME280;66798;47.370;8.552;2024-03-23T20:43:25;96468.16;;;5.75;77.36
77631;BME280;66798;47.370;8.552;2024-03-23T20:46:09;96494.19;;;5.87;79.08
77631;BME280;66798;47.370;8.552;2024-03-23T20:48:35;96507.47;;;5.52;80.96
77631;BME280;66798;47.370;8.552;2024-03-23T20:51:06;96500.22;;;5.08;83.35
77631;BME280;66798;47.370;8.552;2024-03-23T20:53:33;96519.31;;;5.14;82.85
77631;BME280;66798;47.370;8.552;2024-03-23T20:56:01;96518.50;;;4.97;85.71
77631;BME280;66798;47.370;8.552;2024-03-23T20:58:28;96507.28;;;4.96;86.33
77631;BME280;66798;47.370;8.552;2024-03-23T21:00:58;96512.16;;;4.93;86.10
77631;BME280;66798;47.370;8.552;2024-03-23T21:03:24;96504.22;;;4.99;86.31
77631;BME280;66798;47.370;8.552;2024-03-23T21:05:52;96504.28;;;5.04;87.16
77631;BME280;66798;47.370;8.552;2024-03-23T21:08:17;96497.06;;;5.23;84.72
77631;BME280;66798;47.370;8.552;2024-03-23T21:10:51;96480.31;;;5.19;85.55
77631;BME280;66798;47.370;8.552;2024-03-23T21:13:16;96476.97;;;5.07;85.94
77631;BME280;66798;47.370;8.552;2024-03-23T21:15:52;96479.34;;;5.08;85.37
77631;BME280;66798;47.370;8.552;2024-03-23T21:18:19;96485.63;;;5.24;86.63
77631;BME280;66798;47.370;8.552;2024-03-23T21:20:45;96477.66;;;5.02;86.06
77631;BME280;66798;47.370;8.552;2024-03-23T21:23:11;96487.97;;;5.09;85.42
77631;BME280;66798;47.370;8.552;2024-03-23T21:25:38;96474.22;;;5.14;85.60
77631;BME280;66798;47.370;8.552;2024-03-23T21:28:04;96476.69;;;5.20;85.13
77631;BME280;66798;47.370;8.552;2024-03-23T21:30:30;96482.97;;;5.07;82.61
